sensor_id;sensor_type;location;lat;lon;timestamp;P1;durP1;ratioP1;P2;durP2;ratioP2
6420;SDS011;3243;50.958;7.012;2023-06-10T00:02:02;8.90;;;8.00;;
6420;SDS011;3243;50.958;7.012;2023-06-10T00:04:29;7.93;;;7.20;;
6420;SDS011;3243;50.958;7.012;2023-06-10T00:06:56;9.18;;;7.70;;
6420;SDS011;3243;50.958;7.012;2023-06-10T00:09:23;8.30;;;7.35;;
6420;SDS011;3243;50.958;7.012;2023-06-10T00:11:50;8.55;;;7.50;;
6420;SDS011;3243;50.958;7.012;2023-06-10T00:14:17;7.85;;;6.95;;
6420;SDS011;3243;50.958;7.012;2023-06-10T00:16:45;8.40;;;7.50;;
6420;SDS011;3243;50.958;7.012;2023-06-10T00:19:12;8.32;;;7.40;;
6420;SDS011;3243;50.958;7.012;2023-06-10T00:21:40;9.68;;;7.82;;
6420;SDS011;3243;50.958;7.012;2023-06-10T00:24:07;8.80;;;7.80;;
6420;SDS011;3243;50.958;7.012;2023-06-10T00:26:40;9.13;;;7.60;;
6420;SDS011;3243;50.958;7.012;2023-06-10T00:29:07;8.32;;;7.53;;
6420;SDS011;3243;50.958;7.012;2023-06-10T00:31:35;8.88;;;7.97;;
6420;SDS011;3243;50.958;7.012;2023-06-10T00:34:03;8.93;;;8.02;;
6420;SDS011;3243;50.958;7.012;2023-06-10T00:36:30;8.32;;;7.47;;
6420;SDS011;3243;50.958;7.012;2023-06-10T00:38:57;9.07;;;7.65;;
6420;SDS011;3243;50.958;7.012;2023-06-10T00:41:24;8.35;;;7.47;;
6420;SDS011;3243;50.958;7.012;2023-06-10T00:43:52;8.95;;;8.05;;
6420;SDS011;3243;50.958;7.012;2023-06-10T00:46:19;8.75;;;7.85;;
6420;SDS011;3243;50.958;7.012;2023-06-10T00:48:47;9.45;;;8.45;;
6420;SDS011;3243;50.958;7.012;2023-06-10T00:51:15;9.77;;;8.35;;
6420;SDS011;3243;50.958;7.012;2023-06-10T00:53:43;10.98;;;8.40;;
6420;SDS011;3243;50.958;7.012;2023-06-10T00:56:11;9.83;;;8.07;;
6420;SDS011;3243;50.958;7.012;2023-06-10T00:58:37;8.93;;;7.50;;
6420;SDS011;3243;50.958;7.012;2023-06-10T01:01:04;9.60;;;8.60;;
6420;SDS011;3243;50.958;7.012;2023-06-10T01:03:31;11.27;;;8.37;;
6420;SDS011;3243;50.958;7.012;2023-06-10T01:06:06;9.07;;;7.80;;
6420;SDS011;3243;50.958;7.012;2023-06-10T01:09:39;8.80;;;7.67;;
6420;SDS011;3243;50.958;7.012;2023-06-10T01:14:34;9.50;;;8.55;;
6420;SDS011;3243;50.958;7.012;2023-06-10T01:17:02;10.40;;;7.63;;
6420;SDS011;3243;50.958;7.012;2023-06-10T01:19:29;10.27;;;8.17;;
6420;SDS011;3243;50.958;7.012;2023-06-10T01:21:57;9.87;;;7.73;;
6420;SDS011;3243;50.958;7.012;2023-06-10T01:24:27;9.48;;;8.57;;
6420;SDS011;3243;50.958;7.012;2023-06-10T01:26:55;9.57;;;8.23;;
6420;SDS011;3243;50.958;7.012;2023-06-10T01:29:29;9.25;;;8.32;;
6420;SDS011;3243;50.958;7.012;2023-06-10T01:32:05;8.97;;;8.07;;
6420;SDS011;3243;50.958;7.012;2023-06-10T01:34:42;9.70;;;7.80;;
6420;SDS011;3243;50.958;7.012;2023-06-10T01:37:11;9.30;;;8.30;;
6420;SDS011;3243;50.958;7.012;2023-06-10T01:39:41;8.97;;;8.13;;
6420;SDS011;3243;50.958;7.012;2023-06-10T01:42:09;10.77;;;8.50;;
6420;SDS011;3243;50.958;7.012;2023-06-10T01:44:38;8.67;;;7.87;;
6420;SDS011;3243;50.958;7.012;2023-06-10T01:47:06;8.77;;;7.87;;
6420;SDS011;3243;50.958;7.012;2023-06-10T01:49:32;10.17;;;7.87;;
6420;SDS011;3243;50.958;7.012;2023-06-10T01:51:59;10.33;;;8.27;;
6420;SDS011;3243;50.958;7.012;2023-06-10T01:54:26;8.80;;;7.90;;
6420;SDS011;3243;50.958;7.012;2023-06-10T01:56:53;8.83;;;7.93;;
6420;SDS011;3243;50.958;7.012;2023-06-10T01:59:19;9.23;;;8.20;;
6420;SDS011;3243;50.958;7.012;2023-06-10T02:01:46;13.97;;;8.40;;
6420;SDS011;3243;50.958;7.012;2023-06-10T02:04:13;9.60;;;8.30;;
6420;SDS011;3243;50.958;7.012;2023-06-10T02:06:43;9.02;;;8.10;;
6420;SDS011;3243;50.958;7.012;2023-06-10T02:09:09;9.63;;;8.70;;
6420;SDS011;3243;50.958;7.012;2023-06-10T02:11:36;10.30;;;8.70;;
6420;SDS011;3243;50.958;7.012;2023-06-10T02:14:03;10.10;;;9.10;;
6420;SDS011;3243;50.958;7.012;2023-06-10T02:16:30;9.93;;;8.93;;
6420;SDS011;3243;50.958;7.012;2023-06-10T02:18:59;9.55;;;8.40;;
6420;SDS011;3243;50.958;7.012;2023-06-10T02:21:26;9.57;;;8.57;;
6420;SDS011;3243;50.958;7.012;2023-06-10T02:23:53;10.13;;;8.53;;
6420;SDS011;3243;50.958;7.012;2023-06-10T02:26:20;11.33;;;8.50;;
6420;SDS011;3243;50.958;7.012;2023-06-10T02:28:47;10.60;;;8.20;;
6420;SDS011;3243;50.958;7.012;2023-06-10T02:31:14;10.23;;;9.23;;
6420;SDS011;3243;50.958;7.012;2023-06-10T02:33:44;9.63;;;8.50;;
6420;SDS011;3243;50.958;7.012;2023-06-10T02:36:11;9.97;;;8.50;;
6420;SDS011;3243;50.958;7.012;2023-06-10T02:38:39;9.23;;;8.23;;
6420;SDS011;3243;50.958;7.012;2023-06-10T02:41:06;10.07;;;8.83;;
6420;SDS011;3243;50.958;7.012;2023-06-10T02:43:33;11.30;;;8.13;;
6420;SDS011;3243;50.958;7.012;2023-06-10T02:46:00;10.10;;;8.70;;
6420;SDS011;3243;50.958;7.012;2023-06-10T02:48:27;9.70;;;8.60;;
6420;SDS011;3243;50.958;7.012;2023-06-10T02:50:54;10.67;;;8.73;;
6420;SDS011;3243;50.958;7.012;2023-06-10T02:53:22;9.87;;;8.97;;
6420;SDS011;3243;50.958;7.012;2023-06-10T02:55:49;9.60;;;8.70;;
6420;SDS011;3243;50.958;7.012;2023-06-10T02:58:15;10.27;;;9.17;;
6420;SDS011;3243;50.958;7.012;2023-06-10T03:00:42;9.60;;;8.60;;
6420;SDS011;3243;50.958;7.012;2023-06-10T03:03:10;10.33;;;9.30;;
6420;SDS011;3243;50.958;7.012;2023-06-10T03:05:36;9.93;;;8.93;;
6420;SDS011;3243;50.958;7.012;2023-06-10T03:08:03;10.00;;;9.00;;
6420;SDS011;3243;50.958;7.012;2023-06-10T03:10:30;10.53;;;8.73;;
6420;SDS011;3243;50.958;7.012;2023-06-10T03:12:59;12.13;;;9.97;;
6420;SDS011;3243;50.958;7.012;2023-06-10T03:15:25;11.07;;;9.40;;
6420;SDS011;3243;50.958;7.012;2023-06-10T03:17:54;12.03;;;9.87;;
6420;SDS011;3243;50.958;7.012;2023-06-10T03:20:21;9.90;;;8.93;;
6420;SDS011;3243;50.958;7.012;2023-06-10T03:22:48;10.63;;;9.57;;
6420;SDS011;3243;50.958;7.012;2023-06-10T03:25:15;9.70;;;8.70;;
6420;SDS011;3243;50.958;7.012;2023-06-10T03:27:42;12.33;;;11.13;;
6420;SDS011;3243;50.958;7.012;2023-06-10T03:30:09;10.17;;;9.13;;
6420;SDS011;3243;50.958;7.012;2023-06-10T03:32:36;10.63;;;9.10;;
6420;SDS011;3243;50.958;7.012;2023-06-10T03:35:03;10.10;;;9.10;;
6420;SDS011;3243;50.958;7.012;2023-06-10T03:37:31;10.10;;;9.17;;
6420;SDS011;3243;50.958;7.012;2023-06-10T03:39:58;10.47;;;9.17;;
6420;SDS011;3243;50.958;7.012;2023-06-10T03:42:24;9.90;;;8.73;;
6420;SDS011;3243;50.958;7.012;2023-06-10T03:44:51;10.13;;;9.10;;
6420;SDS011;3243;50.958;7.012;2023-06-10T03:47:18;10.32;;;9.23;;
6420;SDS011;3243;50.958;7.012;2023-06-10T03:49:44;10.50;;;9.40;;
6420;SDS011;3243;50.958;7.012;2023-06-10T03:52:11;9.83;;;8.83;;
6420;SDS011;3243;50.958;7.012;2023-06-10T03:54:38;11.87;;;9.90;;
6420;SDS011;3243;50.958;7.012;2023-06-10T03:57:05;11.87;;;9.70;;
6420;SDS011;3243;50.958;7.012;2023-06-10T03:59:32;10.73;;;9.63;;
6420;SDS011;3243;50.958;7.012;2023-06-10T04:01:59;10.10;;;9.10;;
6420;SDS011;3243;50.958;7.012;2023-06-10T04:04:26;11.93;;;9.47;;
6420;SDS011;3243;50.958;7.012;2023-06-10T04:06:53;11.60;;;9.30;;
6420;SDS011;3243;50.958;7.012;2023-06-10T04:09:20;11.37;;;10.17;;
6420;SDS011;3243;50.958;7.012;2023-06-10T04:11:47;9.77;;;8.77;;
6420;SDS011;3243;50.958;7.012;2023-06-10T04:14:14;12.07;;;9.60;;
6420;SDS011;3243;50.958;7.012;2023-06-10T04:16:41;11.23;;;9.40;;
6420;SDS011;3243;50.958;7.012;2023-06-10T04:19:09;10.43;;;9.33;;
6420;SDS011;3243;50.958;7.012;2023-06-10T04:21:35;9.87;;;8.97;;
6420;SDS011;3243;50.958;7.012;2023-06-10T04:24:02;10.37;;;9.27;;
6420;SDS011;3243;50.958;7.012;2023-06-10T04:26:29;10.63;;;9.20;;
6420;SDS011;3243;50.958;7.012;2023-06-10T04:28:56;11.00;;;9.90;;
6420;SDS011;3243;50.958;7.012;2023-06-10T04:31:23;12.73;;;10.57;;
6420;SDS011;3243;50.958;7.012;2023-06-10T04:33:50;11.43;;;9.85;;
6420;SDS011;3243;50.958;7.012;2023-06-10T04:36:16;10.18;;;9.18;;
6420;SDS011;3243;50.958;7.012;2023-06-10T04:38:43;10.13;;;9.03;;
6420;SDS011;3243;50.958;7.012;2023-06-10T04:41:10;11.32;;;9.60;;
6420;SDS011;3243;50.958;7.012;2023-06-10T04:43:39;10.63;;;9.30;;
6420;SDS011;3243;50.958;7.012;2023-06-10T04:46:06;11.03;;;9.27;;
6420;SDS011;3243;50.958;7.012;2023-06-10T04:48:34;11.03;;;9.87;;
6420;SDS011;3243;50.958;7.012;2023-06-10T04:51:01;10.80;;;8.80;;
6420;SDS011;3243;50.958;7.012;2023-06-10T04:53:29;11.40;;;8.70;;
6420;SDS011;3243;50.958;7.012;2023-06-10T04:55:56;10.33;;;9.13;;
6420;SDS011;3243;50.958;7.012;2023-06-10T04:58:23;9.67;;;8.60;;
6420;SDS011;3243;50.958;7.012;2023-06-10T05:00:50;10.40;;;9.30;;
6420;SDS011;3243;50.958;7.012;2023-06-10T05:03:17;9.80;;;8.80;;
6420;SDS011;3243;50.958;7.012;2023-06-10T05:05:44;9.77;;;8.77;;
6420;SDS011;3243;50.958;7.012;2023-06-10T05:08:11;11.27;;;9.40;;
6420;SDS011;3243;50.958;7.012;2023-06-10T05:10:38;11.07;;;8.75;;
6420;SDS011;3243;50.958;7.012;2023-06-10T05:13:05;9.80;;;8.80;;
6420;SDS011;3243;50.958;7.012;2023-06-10T05:15:32;10.50;;;8.15;;
6420;SDS011;3243;50.958;7.012;2023-06-10T05:17:59;9.77;;;8.73;;
6420;SDS011;3243;50.958;7.012;2023-06-10T05:20:26;10.45;;;8.73;;
6420;SDS011;3243;50.958;7.012;2023-06-10T05:22:54;9.52;;;8.40;;
6420;SDS011;3243;50.958;7.012;2023-06-10T05:25:21;10.38;;;8.35;;
6420;SDS011;3243;50.958;7.012;2023-06-10T05:27:48;10.43;;;7.05;;
6420;SDS011;3243;50.958;7.012;2023-06-10T05:30:15;9.45;;;6.95;;
6420;SDS011;3243;50.958;7.012;2023-06-10T05:32:44;7.93;;;6.95;;
6420;SDS011;3243;50.958;7.012;2023-06-10T05:35:12;7.07;;;6.38;;
6420;SDS011;3243;50.958;7.012;2023-06-10T05:37:39;6.75;;;6.15;;
6420;SDS011;3243;50.958;7.012;2023-06-10T05:40:06;11.80;;;6.40;;
6420;SDS011;3243;50.958;7.012;2023-06-10T05:42:33;7.03;;;6.13;;
6420;SDS011;3243;50.958;7.012;2023-06-10T05:45:00;6.32;;;5.63;;
6420;SDS011;3243;50.958;7.012;2023-06-10T05:47:28;7.07;;;6.38;;
6420;SDS011;3243;50.958;7.012;2023-06-10T05:49:55;7.80;;;6.72;;
6420;SDS011;3243;50.958;7.012;2023-06-10T05:52:22;7.75;;;6.60;;
6420;SDS011;3243;50.958;7.012;2023-06-10T05:54:49;7.70;;;5.80;;
6420;SDS011;3243;50.958;7.012;2023-06-10T05:57:16;6.15;;;5.55;;
6420;SDS011;3243;50.958;7.012;2023-06-10T05:59:43;6.25;;;5.53;;
6420;SDS011;3243;50.958;7.012;2023-06-10T06:02:10;6.63;;;5.25;;
6420;SDS011;3243;50.958;7.012;2023-06-10T06:04:37;6.95;;;6.10;;
6420;SDS011;3243;50.958;7.012;2023-06-10T06:07:04;5.70;;;5.18;;
6420;SDS011;3243;50.958;7.012;2023-06-10T06:09:32;5.75;;;5.20;;
6420;SDS011;3243;50.958;7.012;2023-06-10T06:11:58;5.85;;;5.22;;
6420;SDS011;3243;50.958;7.012;2023-06-10T06:14:25;6.90;;;4.97;;
6420;SDS011;3243;50.958;7.012;2023-06-10T06:16:52;7.65;;;5.85;;
6420;SDS011;3243;50.958;7.012;2023-06-10T06:19:19;5.72;;;5.13;;
6420;SDS011;3243;50.958;7.012;2023-06-10T06:21:45;6.90;;;4.97;;
6420;SDS011;3243;50.958;7.012;2023-06-10T06:24:12;5.63;;;4.97;;
6420;SDS011;3243;50.958;7.012;2023-06-10T06:26:40;5.72;;;5.20;;
6420;SDS011;3243;50.958;7.012;2023-06-10T06:29:07;5.45;;;4.95;;
6420;SDS011;3243;50.958;7.012;2023-06-10T06:31:34;6.72;;;5.45;;
6420;SDS011;3243;50.958;7.012;2023-06-10T06:34:01;6.05;;;4.80;;
6420;SDS011;3243;50.958;7.012;2023-06-10T06:36:27;6.55;;;4.75;;
6420;SDS011;3243;50.958;7.012;2023-06-10T06:38:54;5.53;;;4.93;;
6420;SDS011;3243;50.958;7.012;2023-06-10T06:41:21;6.85;;;4.95;;
6420;SDS011;3243;50.958;7.012;2023-06-10T06:43:48;5.57;;;4.95;;
6420;SDS011;3243;50.958;7.012;2023-06-10T06:46:15;5.53;;;4.97;;
6420;SDS011;3243;50.958;7.012;2023-06-10T06:48:43;6.60;;;5.32;;
6420;SDS011;3243;50.958;7.012;2023-06-10T06:51:10;4.82;;;4.32;;
6420;SDS011;3243;50.958;7.012;2023-06-10T06:53:37;6.00;;;4.57;;
6420;SDS011;3243;50.958;7.012;2023-06-10T06:56:10;5.93;;;5.00;;
6420;SDS011;3243;50.958;7.012;2023-06-10T06:58:37;5.70;;;5.20;;
6420;SDS011;3243;50.958;7.012;2023-06-10T07:01:04;6.80;;;5.30;;
6420;SDS011;3243;50.958;7.012;2023-06-10T07:03:31;8.32;;;5.45;;
6420;SDS011;3243;50.958;7.012;2023-06-10T07:05:58;5.50;;;4.90;;
6420;SDS011;3243;50.958;7.012;2023-06-10T07:08:24;6.60;;;5.10;;
6420;SDS011;3243;50.958;7.012;2023-06-10T07:10:51;5.80;;;5.18;;
6420;SDS011;3243;50.958;7.012;2023-06-10T07:13:18;5.90;;;5.30;;
6420;SDS011;3243;50.958;7.012;2023-06-10T07:15:45;8.85;;;5.43;;
6420;SDS011;3243;50.958;7.012;2023-06-10T07:18:11;8.50;;;5.90;;
6420;SDS011;3243;50.958;7.012;2023-06-10T07:20:38;5.65;;;5.15;;
6420;SDS011;3243;50.958;7.012;2023-06-10T07:23:05;6.50;;;5.50;;
6420;SDS011;3243;50.958;7.012;2023-06-10T07:25:32;6.35;;;5.75;;
6420;SDS011;3243;50.958;7.012;2023-06-10T07:27:59;6.82;;;6.10;;
6420;SDS011;3243;50.958;7.012;2023-06-10T07:30:25;6.10;;;5.50;;
6420;SDS011;3243;50.958;7.012;2023-06-10T07:32:52;5.88;;;5.30;;
6420;SDS011;3243;50.958;7.012;2023-06-10T07:35:19;9.25;;;5.75;;
6420;SDS011;3243;50.958;7.012;2023-06-10T07:37:46;5.85;;;5.28;;
6420;SDS011;3243;50.958;7.012;2023-06-10T07:40:13;6.32;;;5.72;;
6420;SDS011;3243;50.958;7.012;2023-06-10T07:42:39;6.85;;;5.78;;
6420;SDS011;3243;50.958;7.012;2023-06-10T07:45:06;6.45;;;5.47;;
6420;SDS011;3243;50.958;7.012;2023-06-10T07:47:34;6.75;;;5.65;;
6420;SDS011;3243;50.958;7.012;2023-06-10T07:50:01;6.03;;;5.40;;
6420;SDS011;3243;50.958;7.012;2023-06-10T07:52:28;6.70;;;5.82;;
6420;SDS011;3243;50.958;7.012;2023-06-10T07:54:55;7.40;;;5.85;;
6420;SDS011;3243;50.958;7.012;2023-06-10T07:57:21;7.00;;;5.68;;
6420;SDS011;3243;50.958;7.012;2023-06-10T07:59:48;5.95;;;5.32;;
6420;SDS011;3243;50.958;7.012;2023-06-10T08:02:15;8.32;;;5.88;;
6420;SDS011;3243;50.958;7.012;2023-06-10T08:04:42;6.70;;;6.10;;
6420;SDS011;3243;50.958;7.012;2023-06-10T08:07:08;6.15;;;5.60;;
6420;SDS011;3243;50.958;7.012;2023-06-10T08:09:35;8.07;;;5.70;;
6420;SDS011;3243;50.958;7.012;2023-06-10T08:12:02;7.10;;;5.55;;
6420;SDS011;3243;50.958;7.012;2023-06-10T08:14:29;8.55;;;6.30;;
6420;SDS011;3243;50.958;7.012;2023-06-10T08:16:56;6.82;;;6.13;;
6420;SDS011;3243;50.958;7.012;2023-06-10T08:19:23;10.13;;;6.60;;
6420;SDS011;3243;50.958;7.012;2023-06-10T08:21:50;7.03;;;5.60;;
6420;SDS011;3243;50.958;7.012;2023-06-10T08:24:16;7.32;;;6.18;;
6420;SDS011;3243;50.958;7.012;2023-06-10T08:26:45;7.18;;;5.78;;
6420;SDS011;3243;50.958;7.012;2023-06-10T08:29:12;6.93;;;5.85;;
6420;SDS011;3243;50.958;7.012;2023-06-10T08:31:42;6.57;;;5.78;;
6420;SDS011;3243;50.958;7.012;2023-06-10T08:34:10;7.88;;;6.20;;
6420;SDS011;3243;50.958;7.012;2023-06-10T08:36:37;6.47;;;5.72;;
6420;SDS011;3243;50.958;7.012;2023-06-10T08:39:04;8.60;;;5.50;;
6420;SDS011;3243;50.958;7.012;2023-06-10T08:41:34;6.60;;;5.82;;
6420;SDS011;3243;50.958;7.012;2023-06-10T08:44:10;6.72;;;5.55;;
6420;SDS011;3243;50.958;7.012;2023-06-10T08:46:47;8.27;;;5.90;;
6420;SDS011;3243;50.958;7.012;2023-06-10T08:49:17;7.80;;;6.00;;
6420;SDS011;3243;50.958;7.012;2023-06-10T08:51:48;7.25;;;6.03;;
6420;SDS011;3243;50.958;7.012;2023-06-10T08:54:18;6.18;;;5.57;;
6420;SDS011;3243;50.958;7.012;2023-06-10T08:56:51;6.97;;;5.70;;
6420;SDS011;3243;50.958;7.012;2023-06-10T08:59:20;5.93;;;5.30;;
6420;SDS011;3243;50.958;7.012;2023-06-10T09:01:47;5.97;;;5.38;;
6420;SDS011;3243;50.958;7.012;2023-06-10T09:04:14;6.43;;;5.43;;
6420;SDS011;3243;50.958;7.012;2023-06-10T09:06:42;7.25;;;5.80;;
6420;SDS011;3243;50.958;7.012;2023-06-10T09:09:10;12.90;;;6.90;;
6420;SDS011;3243;50.958;7.012;2023-06-10T09:11:40;6.15;;;5.47;;
6420;SDS011;3243;50.958;7.012;2023-06-10T09:14:08;7.28;;;6.18;;
6420;SDS011;3243;50.958;7.012;2023-06-10T09:16:35;6.30;;;5.70;;
6420;SDS011;3243;50.958;7.012;2023-06-10T09:19:04;9.40;;;5.82;;
6420;SDS011;3243;50.958;7.012;2023-06-10T09:21:34;8.32;;;5.40;;
6420;SDS011;3243;50.958;7.012;2023-06-10T09:24:05;8.95;;;6.10;;
6420;SDS011;3243;50.958;7.012;2023-06-10T09:26:32;8.13;;;6.07;;
6420;SDS011;3243;50.958;7.012;2023-06-10T09:29:07;6.82;;;6.13;;
6420;SDS011;3243;50.958;7.012;2023-06-10T09:31:35;8.88;;;6.10;;
6420;SDS011;3243;50.958;7.012;2023-06-10T09:34:07;6.13;;;5.53;;
6420;SDS011;3243;50.958;7.012;2023-06-10T09:36:35;7.10;;;5.57;;
6420;SDS011;3243;50.958;7.012;2023-06-10T09:39:02;7.70;;;6.10;;
6420;SDS011;3243;50.958;7.012;2023-06-10T09:41:33;6.78;;;6.07;;
6420;SDS011;3243;50.958;7.012;2023-06-10T09:44:01;9.77;;;6.30;;
6420;SDS011;3243;50.958;7.012;2023-06-10T09:46:35;6.22;;;5.63;;
6420;SDS011;3243;50.958;7.012;2023-06-10T09:49:02;8.10;;;5.70;;
6420;SDS011;3243;50.958;7.012;2023-06-10T09:51:29;6.35;;;5.75;;
6420;SDS011;3243;50.958;7.012;2023-06-10T09:53:55;14.85;;;5.38;;
6420;SDS011;3243;50.958;7.012;2023-06-10T09:56:32;6.45;;;5.63;;
6420;SDS011;3243;50.958;7.012;2023-06-10T09:59:00;6.45;;;5.85;;
6420;SDS011;3243;50.958;7.012;2023-06-10T10:01:27;8.32;;;5.85;;
6420;SDS011;3243;50.958;7.012;2023-06-10T10:03:56;6.30;;;5.70;;
6420;SDS011;3243;50.958;7.012;2023-06-10T10:06:23;6.60;;;5.90;;
6420;SDS011;3243;50.958;7.012;2023-06-10T10:08:51;6.28;;;5.68;;
6420;SDS011;3243;50.958;7.012;2023-06-10T10:11:20;7.82;;;5.90;;
6420;SDS011;3243;50.958;7.012;2023-06-10T10:13:52;8.68;;;5.80;;
6420;SDS011;3243;50.958;7.012;2023-06-10T10:16:20;6.93;;;5.40;;
6420;SDS011;3243;50.958;7.012;2023-06-10T10:19:04;5.95;;;5.35;;
6420;SDS011;3243;50.958;7.012;2023-06-10T10:21:43;6.30;;;5.50;;
6420;SDS011;3243;50.958;7.012;2023-06-10T10:24:18;8.30;;;5.43;;
6420;SDS011;3243;50.958;7.012;2023-06-10T10:26:47;6.45;;;5.18;;
6420;SDS011;3243;50.958;7.012;2023-06-10T10:29:20;8.85;;;5.72;;
6420;SDS011;3243;50.958;7.012;2023-06-10T10:32:16;6.57;;;5.85;;
6420;SDS011;3243;50.958;7.012;2023-06-10T10:37:43;9.23;;;5.30;;
6420;SDS011;3243;50.958;7.012;2023-06-10T10:40:11;6.35;;;5.68;;
6420;SDS011;3243;50.958;7.012;2023-06-10T10:42:38;6.32;;;5.55;;
6420;SDS011;3243;50.958;7.012;2023-06-10T10:45:06;6.43;;;5.70;;
6420;SDS011;3243;50.958;7.012;2023-06-10T10:47:35;6.45;;;4.85;;
6420;SDS011;3243;50.958;7.012;2023-06-10T10:50:12;5.97;;;5.18;;
6420;SDS011;3243;50.958;7.012;2023-06-10T10:52:51;8.60;;;5.07;;
6420;SDS011;3243;50.958;7.012;2023-06-10T10:55:23;7.30;;;5.57;;
6420;SDS011;3243;50.958;7.012;2023-06-10T10:58:09;6.05;;;5.45;;
6420;SDS011;3243;50.958;7.012;2023-06-10T11:00:45;10.68;;;5.10;;
6420;SDS011;3243;50.958;7.012;2023-06-10T11:03:13;7.75;;;5.22;;
6420;SDS011;3243;50.958;7.012;2023-06-10T11:05:46;6.65;;;5.05;;
6420;SDS011;3243;50.958;7.012;2023-06-10T11:08:16;6.68;;;5.40;;
6420;SDS011;3243;50.958;7.012;2023-06-10T11:11:18;6.55;;;4.70;;
6420;SDS011;3243;50.958;7.012;2023-06-10T11:16:31;6.78;;;4.70;;
6420;SDS011;3243;50.958;7.012;2023-06-10T11:19:08;8.27;;;5.03;;
6420;SDS011;3243;50.958;7.012;2023-06-10T11:21:56;7.65;;;5.38;;
6420;SDS011;3243;50.958;7.012;2023-06-10T11:24:25;7.28;;;5.32;;
6420;SDS011;3243;50.958;7.012;2023-06-10T11:26:52;5.93;;;4.47;;
6420;SDS011;3243;50.958;7.012;2023-06-10T11:29:21;6.43;;;5.10;;
6420;SDS011;3243;50.958;7.012;2023-06-10T11:31:51;7.10;;;5.10;;
6420;SDS011;3243;50.958;7.012;2023-06-10T11:34:21;5.45;;;4.85;;
6420;SDS011;3243;50.958;7.012;2023-06-10T11:36:50;5.50;;;4.97;;
6420;SDS011;3243;50.958;7.012;2023-06-10T11:39:19;5.45;;;4.85;;
6420;SDS011;3243;50.958;7.012;2023-06-10T11:41:46;5.90;;;4.93;;
6420;SDS011;3243;50.958;7.012;2023-06-10T11:44:14;6.28;;;4.82;;
6420;SDS011;3243;50.958;7.012;2023-06-10T11:46:45;9.73;;;5.22;;
6420;SDS011;3243;50.958;7.012;2023-06-10T11:49:14;5.28;;;4.53;;
6420;SDS011;3243;50.958;7.012;2023-06-10T11:51:41;6.70;;;4.65;;
6420;SDS011;3243;50.958;7.012;2023-06-10T11:54:15;5.25;;;4.65;;
6420;SDS011;3243;50.958;7.012;2023-06-10T11:56:43;5.85;;;4.90;;
6420;SDS011;3243;50.958;7.012;2023-06-10T11:59:10;8.13;;;4.90;;
6420;SDS011;3243;50.958;7.012;2023-06-10T12:01:38;5.78;;;5.18;;
6420;SDS011;3243;50.958;7.012;2023-06-10T12:04:10;5.93;;;5.35;;
6420;SDS011;3243;50.958;7.012;2023-06-10T12:09:23;5.63;;;5.10;;
6420;SDS011;3243;50.958;7.012;2023-06-10T12:12:00;5.43;;;4.88;;
6420;SDS011;3243;50.958;7.012;2023-06-10T12:19:59;6.78;;;5.50;;
6420;SDS011;3243;50.958;7.012;2023-06-10T12:22:39;5.93;;;5.10;;
6420;SDS011;3243;50.958;7.012;2023-06-10T12:25:08;5.18;;;4.68;;
6420;SDS011;3243;50.958;7.012;2023-06-10T12:27:36;7.43;;;5.30;;
6420;SDS011;3243;50.958;7.012;2023-06-10T12:30:04;8.93;;;5.20;;
6420;SDS011;3243;50.958;7.012;2023-06-10T12:32:45;5.70;;;5.20;;
6420;SDS011;3243;50.958;7.012;2023-06-10T12:35:19;6.70;;;5.00;;
6420;SDS011;3243;50.958;7.012;2023-06-10T12:37:58;5.97;;;4.90;;
6420;SDS011;3243;50.958;7.012;2023-06-10T12:40:44;6.60;;;4.90;;
6420;SDS011;3243;50.958;7.012;2023-06-10T12:43:11;8.10;;;4.65;;
6420;SDS011;3243;50.958;7.012;2023-06-10T12:45:38;5.07;;;4.32;;
6420;SDS011;3243;50.958;7.012;2023-06-10T12:48:09;4.88;;;4.32;;
6420;SDS011;3243;50.958;7.012;2023-06-10T12:50:51;6.22;;;5.00;;
6420;SDS011;3243;50.958;7.012;2023-06-10T12:53:22;6.32;;;4.65;;
6420;SDS011;3243;50.958;7.012;2023-06-10T12:55:50;7.68;;;4.55;;
6420;SDS011;3243;50.958;7.012;2023-06-10T12:58:17;4.90;;;4.25;;
6420;SDS011;3243;50.958;7.012;2023-06-10T13:00:46;5.18;;;4.10;;
6420;SDS011;3243;50.958;7.012;2023-06-10T13:03:15;8.02;;;4.35;;
6420;SDS011;3243;50.958;7.012;2023-06-10T13:05:42;5.95;;;4.97;;
6420;SDS011;3243;50.958;7.012;2023-06-10T13:08:09;5.80;;;4.45;;
6420;SDS011;3243;50.958;7.012;2023-06-10T13:10:37;5.55;;;4.60;;
6420;SDS011;3243;50.958;7.012;2023-06-10T13:13:04;7.78;;;5.15;;
6420;SDS011;3243;50.958;7.012;2023-06-10T13:15:33;7.05;;;5.38;;
6420;SDS011;3243;50.958;7.012;2023-06-10T13:18:09;5.90;;;4.50;;
6420;SDS011;3243;50.958;7.012;2023-06-10T13:20:36;8.80;;;4.47;;
6420;SDS011;3243;50.958;7.012;2023-06-10T13:23:06;6.10;;;4.47;;
6420;SDS011;3243;50.958;7.012;2023-06-10T13:25:36;5.15;;;4.65;;
6420;SDS011;3243;50.958;7.012;2023-06-10T13:28:03;6.18;;;4.60;;
6420;SDS011;3243;50.958;7.012;2023-06-10T13:30:31;6.07;;;4.82;;
6420;SDS011;3243;50.958;7.012;2023-06-10T13:32:57;8.27;;;4.80;;
6420;SDS011;3243;50.958;7.012;2023-06-10T13:35:25;5.40;;;4.40;;
6420;SDS011;3243;50.958;7.012;2023-06-10T13:37:52;5.63;;;4.65;;
6420;SDS011;3243;50.958;7.012;2023-06-10T13:40:19;5.70;;;4.43;;
6420;SDS011;3243;50.958;7.012;2023-06-10T13:42:46;5.25;;;4.18;;
6420;SDS011;3243;50.958;7.012;2023-06-10T13:45:16;6.65;;;4.75;;
6420;SDS011;3243;50.958;7.012;2023-06-10T13:47:43;5.47;;;4.80;;
6420;SDS011;3243;50.958;7.012;2023-06-10T13:50:11;8.50;;;4.75;;
6420;SDS011;3243;50.958;7.012;2023-06-10T13:52:39;6.40;;;4.40;;
6420;SDS011;3243;50.958;7.012;2023-06-10T13:55:06;8.68;;;4.10;;
6420;SDS011;3243;50.958;7.012;2023-06-10T13:57:34;7.75;;;4.10;;
6420;SDS011;3243;50.958;7.012;2023-06-10T14:00:01;5.45;;;4.57;;
6420;SDS011;3243;50.958;7.012;2023-06-10T14:02:28;6.10;;;4.60;;
6420;SDS011;3243;50.958;7.012;2023-06-10T14:04:55;4.78;;;4.30;;
6420;SDS011;3243;50.958;7.012;2023-06-10T14:07:23;5.72;;;4.55;;
6420;SDS011;3243;50.958;7.012;2023-06-10T14:09:52;6.25;;;4.20;;
6420;SDS011;3243;50.958;7.012;2023-06-10T14:12:19;4.97;;;4.35;;
6420;SDS011;3243;50.958;7.012;2023-06-10T14:14:46;6.15;;;4.53;;
6420;SDS011;3243;50.958;7.012;2023-06-10T14:17:14;4.07;;;3.67;;
6420;SDS011;3243;50.958;7.012;2023-06-10T14:19:41;4.72;;;4.22;;
6420;SDS011;3243;50.958;7.012;2023-06-10T14:22:08;4.47;;;3.92;;
6420;SDS011;3243;50.958;7.012;2023-06-10T14:24:35;5.93;;;4.20;;
6420;SDS011;3243;50.958;7.012;2023-06-10T14:27:05;5.50;;;4.50;;
6420;SDS011;3243;50.958;7.012;2023-06-10T14:29:32;7.90;;;4.40;;
6420;SDS011;3243;50.958;7.012;2023-06-10T14:32:00;5.85;;;4.10;;
6420;SDS011;3243;50.958;7.012;2023-06-10T14:34:27;4.85;;;3.97;;
6420;SDS011;3243;50.958;7.012;2023-06-10T14:36:56;4.70;;;4.10;;
6420;SDS011;3243;50.958;7.012;2023-06-10T14:39:22;4.97;;;4.38;;
6420;SDS011;3243;50.958;7.012;2023-06-10T14:41:49;8.15;;;4.45;;
6420;SDS011;3243;50.958;7.012;2023-06-10T14:44:17;7.00;;;4.50;;
6420;SDS011;3243;50.958;7.012;2023-06-10T14:46:44;5.45;;;4.20;;
6420;SDS011;3243;50.958;7.012;2023-06-10T14:49:11;10.20;;;4.35;;
6420;SDS011;3243;50.958;7.012;2023-06-10T14:51:38;5.13;;;4.38;;
6420;SDS011;3243;50.958;7.012;2023-06-10T14:54:05;4.38;;;3.97;;
6420;SDS011;3243;50.958;7.012;2023-06-10T14:56:33;4.75;;;4.25;;
6420;SDS011;3243;50.958;7.012;2023-06-10T14:58:59;5.82;;;4.50;;
6420;SDS011;3243;50.958;7.012;2023-06-10T15:01:27;6.15;;;5.13;;
6420;SDS011;3243;50.958;7.012;2023-06-10T15:03:53;5.10;;;4.20;;
6420;SDS011;3243;50.958;7.012;2023-06-10T15:06:21;5.88;;;4.50;;
6420;SDS011;3243;50.958;7.012;2023-06-10T15:08:49;5.82;;;4.40;;
6420;SDS011;3243;50.958;7.012;2023-06-10T15:11:16;6.88;;;4.90;;
6420;SDS011;3243;50.958;7.012;2023-06-10T15:13:43;7.03;;;4.72;;
6420;SDS011;3243;50.958;7.012;2023-06-10T15:16:10;6.28;;;4.45;;
6420;SDS011;3243;50.958;7.012;2023-06-10T15:18:37;4.47;;;4.07;;
6420;SDS011;3243;50.958;7.012;2023-06-10T15:21:04;8.18;;;4.47;;
6420;SDS011;3243;50.958;7.012;2023-06-10T15:23:31;4.68;;;4.28;;
6420;SDS011;3243;50.958;7.012;2023-06-10T15:25:58;5.55;;;4.30;;
6420;SDS011;3243;50.958;7.012;2023-06-10T15:28:25;5.25;;;4.30;;
6420;SDS011;3243;50.958;7.012;2023-06-10T15:30:54;4.57;;;4.18;;
6420;SDS011;3243;50.958;7.012;2023-06-10T15:33:21;6.95;;;4.15;;
6420;SDS011;3243;50.958;7.012;2023-06-10T15:35:48;4.35;;;3.78;;
6420;SDS011;3243;50.958;7.012;2023-06-10T15:38:15;4.75;;;4.25;;